sensor_id;sensor_type;location;lat;lon;timestamp;P1;durP1;ratioP1;P2;durP2;ratioP2
78622;SDS011;67943;54.412;9.502;2024-03-02T00:02:11;44.80;;;21.55;;
78622;SDS011;67943;54.412;9.502;2024-03-02T00:07:13;42.28;;;21.15;;
78622;SDS011;67943;54.412;9.502;2024-03-02T00:12:15;41.90;;;21.60;;
78622;SDS011;67943;54.412;9.502;2024-03-02T00:17:21;44.45;;;21.13;;
78622;SDS011;67943;54.412;9.502;2024-03-02T00:22:26;43.08;;;21.58;;
78622;SDS011;67943;54.412;9.502;2024-03-02T00:27:28;44.85;;;21.55;;
78622;SDS011;67943;54.412;9.502;2024-03-02T00:32:31;44.03;;;22.20;;
78622;SDS011;67943;54.412;9.502;2024-03-02T00:37:34;42.00;;;20.65;;
78622;SDS011;67943;54.412;9.502;2024-03-02T00:42:36;47.90;;;22.02;;
78622;SDS011;67943;54.412;9.502;2024-03-02T00:47:39;42.50;;;21.88;;
78622;SDS011;67943;54.412;9.502;2024-03-02T00:52:40;41.42;;;21.63;;
78622;SDS011;67943;54.412;9.502;2024-03-02T00:57:42;41.22;;;21.75;;
78622;SDS011;67943;54.412;9.502;2024-03-02T01:02:45;44.45;;;22.23;;
78622;SDS011;67943;54.412;9.502;2024-03-02T01:07:47;42.63;;;21.23;;
78622;SDS011;67943;54.412;9.502;2024-03-02T01:12:48;42.13;;;21.67;;
78622;SDS011;67943;54.412;9.502;2024-03-02T01:17:51;43.00;;;21.52;;
78622;SDS011;67943;54.412;9.502;2024-03-02T01:22:52;46.78;;;23.20;;
78622;SDS011;67943;54.412;9.502;2024-03-02T01:27:54;43.75;;;20.98;;
78622;SDS011;67943;54.412;9.502;2024-03-02T01:32:57;43.35;;;20.98;;
78622;SDS011;67943;54.412;9.502;2024-03-02T01:37:59;43.92;;;20.75;;
78622;SDS011;67943;54.412;9.502;2024-03-02T01:43:00;39.75;;;20.23;;
78622;SDS011;67943;54.412;9.502;2024-03-02T01:48:04;39.50;;;20.10;;
78622;SDS011;67943;54.412;9.502;2024-03-02T01:53:07;40.40;;;20.48;;
78622;SDS011;67943;54.412;9.502;2024-03-02T01:58:10;39.33;;;20.75;;
78622;SDS011;67943;54.412;9.502;2024-03-02T02:03:13;40.42;;;20.77;;
78622;SDS011;67943;54.412;9.502;2024-03-02T02:08:14;43.50;;;21.02;;
78622;SDS011;67943;54.412;9.502;2024-03-02T02:13:16;42.47;;;20.98;;
78622;SDS011;67943;54.412;9.502;2024-03-02T02:18:18;44.60;;;21.17;;
78622;SDS011;67943;54.412;9.502;2024-03-02T02:23:21;43.83;;;22.10;;
78622;SDS011;67943;54.412;9.502;2024-03-02T02:28:23;44.22;;;21.73;;
78622;SDS011;67943;54.412;9.502;2024-03-02T02:33:24;40.78;;;20.70;;
78622;SDS011;67943;54.412;9.502;2024-03-02T02:38:27;42.63;;;21.55;;
78622;SDS011;67943;54.412;9.502;2024-03-02T02:43:29;41.28;;;20.77;;
78622;SDS011;67943;54.412;9.502;2024-03-02T02:48:30;41.08;;;20.98;;
78622;SDS011;67943;54.412;9.502;2024-03-02T02:53:33;41.00;;;21.20;;
78622;SDS011;67943;54.412;9.502;2024-03-02T02:58:35;41.10;;;21.83;;
78622;SDS011;67943;54.412;9.502;2024-03-02T03:03:37;41.38;;;21.40;;
78622;SDS011;67943;54.412;9.502;2024-03-02T03:08:40;42.70;;;21.35;;
78622;SDS011;67943;54.412;9.502;2024-03-02T03:13:41;45.85;;;21.98;;
78622;SDS011;67943;54.412;9.502;2024-03-02T03:18:42;42.00;;;22.25;;
78622;SDS011;67943;54.412;9.502;2024-03-02T03:23:46;40.30;;;21.48;;
78622;SDS011;67943;54.412;9.502;2024-03-02T03:28:47;45.33;;;21.65;;
78622;SDS011;67943;54.412;9.502;2024-03-02T03:33:49;48.45;;;23.88;;
78622;SDS011;67943;54.412;9.502;2024-03-02T03:38:52;42.70;;;23.60;;
78622;SDS011;67943;54.412;9.502;2024-03-02T03:43:53;44.17;;;22.92;;
78622;SDS011;67943;54.412;9.502;2024-03-02T03:48:55;40.35;;;22.10;;
78622;SDS011;67943;54.412;9.502;2024-03-02T03:53:58;47.78;;;23.42;;
78622;SDS011;67943;54.412;9.502;2024-03-02T03:59:00;44.95;;;23.13;;
78622;SDS011;67943;54.412;9.502;2024-03-02T04:04:01;44.45;;;22.67;;
78622;SDS011;67943;54.412;9.502;2024-03-02T04:09:05;46.40;;;23.50;;
78622;SDS011;67943;54.412;9.502;2024-03-02T04:14:07;42.65;;;23.25;;
78622;SDS011;67943;54.412;9.502;2024-03-02T04:19:08;43.15;;;22.75;;
78622;SDS011;67943;54.412;9.502;2024-03-02T04:24:11;48.15;;;23.15;;
78622;SDS011;67943;54.412;9.502;2024-03-02T04:29:13;44.33;;;22.42;;
78622;SDS011;67943;54.412;9.502;2024-03-02T04:34:14;43.92;;;22.13;;
78622;SDS011;67943;54.412;9.502;2024-03-02T04:39:17;44.15;;;22.88;;
78622;SDS011;67943;54.412;9.502;2024-03-02T04:44:19;44.55;;;23.35;;
78622;SDS011;67943;54.412;9.502;2024-03-02T04:49:20;46.17;;;23.50;;
78622;SDS011;67943;54.412;9.502;2024-03-02T04:54:23;42.25;;;22.20;;
78622;SDS011;67943;54.412;9.502;2024-03-02T04:59:25;47.70;;;24.33;;
78622;SDS011;67943;54.412;9.502;2024-03-02T05:04:27;48.58;;;24.08;;
78622;SDS011;67943;54.412;9.502;2024-03-02T05:09:29;49.58;;;24.02;;
78622;SDS011;67943;54.412;9.502;2024-03-02T05:14:31;49.25;;;23.85;;
78622;SDS011;67943;54.412;9.502;2024-03-02T05:19:32;53.22;;;25.95;;
78622;SDS011;67943;54.412;9.502;2024-03-02T05:24:35;48.90;;;24.85;;
78622;SDS011;67943;54.412;9.502;2024-03-02T05:29:37;51.20;;;24.58;;
78622;SDS011;67943;54.412;9.502;2024-03-02T05:34:39;48.72;;;24.95;;
78622;SDS011;67943;54.412;9.502;2024-03-02T05:39:41;50.17;;;24.85;;
78622;SDS011;67943;54.412;9.502;2024-03-02T05:44:44;50.17;;;25.42;;
78622;SDS011;67943;54.412;9.502;2024-03-02T05:49:45;53.17;;;25.85;;
78622;SDS011;67943;54.412;9.502;2024-03-02T05:54:48;53.47;;;26.50;;
78622;SDS011;67943;54.412;9.502;2024-03-02T05:59:50;54.67;;;26.75;;
78622;SDS011;67943;54.412;9.502;2024-03-02T06:04:53;52.10;;;24.90;;
78622;SDS011;67943;54.412;9.502;2024-03-02T06:09:57;55.80;;;26.75;;
78622;SDS011;67943;54.412;9.502;2024-03-02T06:14:58;53.40;;;26.45;;
78622;SDS011;67943;54.412;9.502;2024-03-02T06:20:00;55.88;;;27.25;;
78622;SDS011;67943;54.412;9.502;2024-03-02T06:25:03;56.28;;;27.45;;
78622;SDS011;67943;54.412;9.502;2024-03-02T06:30:05;55.58;;;27.40;;
78622;SDS011;67943;54.412;9.502;2024-03-02T06:35:08;53.60;;;25.90;;
78622;SDS011;67943;54.412;9.502;2024-03-02T06:40:11;55.08;;;26.88;;
78622;SDS011;67943;54.412;9.502;2024-03-02T06:45:13;50.45;;;26.20;;
78622;SDS011;67943;54.412;9.502;2024-03-02T06:50:14;55.97;;;26.80;;
78622;SDS011;67943;54.412;9.502;2024-03-02T06:55:17;55.28;;;26.17;;
78622;SDS011;67943;54.412;9.502;2024-03-02T07:00:19;53.67;;;26.80;;
78622;SDS011;67943;54.412;9.502;2024-03-02T07:05:21;53.95;;;26.88;;
78622;SDS011;67943;54.412;9.502;2024-03-02T07:10:24;51.45;;;25.60;;
78622;SDS011;67943;54.412;9.502;2024-03-02T07:15:25;53.50;;;24.90;;
78622;SDS011;67943;54.412;9.502;2024-03-02T07:20:44;57.50;;;26.30;;
78622;SDS011;67943;54.412;9.502;2024-03-02T07:25:47;55.35;;;26.52;;
78622;SDS011;67943;54.412;9.502;2024-03-02T07:30:57;51.53;;;25.27;;
78622;SDS011;67943;54.412;9.502;2024-03-02T07:36:00;48.92;;;25.60;;
78622;SDS011;67943;54.412;9.502;2024-03-02T07:41:03;50.63;;;25.35;;
78622;SDS011;67943;54.412;9.502;2024-03-02T07:46:05;50.67;;;25.23;;
78622;SDS011;67943;54.412;9.502;2024-03-02T07:51:07;49.08;;;24.30;;
78622;SDS011;67943;54.412;9.502;2024-03-02T07:56:10;46.08;;;24.63;;
78622;SDS011;67943;54.412;9.502;2024-03-02T08:01:11;44.97;;;24.13;;
78622;SDS011;67943;54.412;9.502;2024-03-02T08:06:13;46.72;;;24.35;;
78622;SDS011;67943;54.412;9.502;2024-03-02T08:11:16;48.53;;;24.10;;
78622;SDS011;67943;54.412;9.502;2024-03-02T08:16:17;45.13;;;23.98;;
78622;SDS011;67943;54.412;9.502;2024-03-02T08:21:20;47.28;;;24.00;;
78622;SDS011;67943;54.412;9.502;2024-03-02T08:26:22;41.95;;;22.15;;
78622;SDS011;67943;54.412;9.502;2024-03-02T08:31:24;36.03;;;20.85;;
78622;SDS011;67943;54.412;9.502;2024-03-02T08:36:26;35.28;;;19.75;;
78622;SDS011;67943;54.412;9.502;2024-03-02T08:41:28;36.05;;;20.05;;
78622;SDS011;67943;54.412;9.502;2024-03-02T08:46:30;32.72;;;19.92;;
78622;SDS011;67943;54.412;9.502;2024-03-02T08:51:32;36.20;;;20.05;;
78622;SDS011;67943;54.412;9.502;2024-03-02T08:56:34;34.28;;;18.48;;
78622;SDS011;67943;54.412;9.502;2024-03-02T09:01:36;32.90;;;18.30;;
78622;SDS011;67943;54.412;9.502;2024-03-02T09:06:41;29.40;;;17.35;;
78622;SDS011;67943;54.412;9.502;2024-03-02T09:11:44;31.67;;;17.30;;
78622;SDS011;67943;54.412;9.502;2024-03-02T09:16:47;28.27;;;17.13;;
78622;SDS011;67943;54.412;9.502;2024-03-02T09:21:48;26.23;;;15.95;;
78622;SDS011;67943;54.412;9.502;2024-03-02T09:26:51;26.45;;;16.50;;
78622;SDS011;67943;54.412;9.502;2024-03-02T09:31:53;25.67;;;14.98;;
78622;SDS011;67943;54.412;9.502;2024-03-02T09:36:54;28.17;;;16.55;;
78622;SDS011;67943;54.412;9.502;2024-03-02T09:41:57;26.55;;;15.63;;
78622;SDS011;67943;54.412;9.502;2024-03-02T09:47:00;25.80;;;14.55;;
78622;SDS011;67943;54.412;9.502;2024-03-02T09:52:01;24.42;;;14.85;;
78622;SDS011;67943;54.412;9.502;2024-03-02T09:57:07;25.10;;;14.90;;
78622;SDS011;67943;54.412;9.502;2024-03-02T10:02:09;23.40;;;14.27;;
78622;SDS011;67943;54.412;9.502;2024-03-02T10:07:11;22.85;;;12.95;;
78622;SDS011;67943;54.412;9.502;2024-03-02T10:12:16;21.10;;;13.43;;
78622;SDS011;67943;54.412;9.502;2024-03-02T10:17:18;22.10;;;13.38;;
78622;SDS011;67943;54.412;9.502;2024-03-02T10:22:19;21.92;;;12.80;;
78622;SDS011;67943;54.412;9.502;2024-03-02T10:27:26;20.65;;;13.38;;
78622;SDS011;67943;54.412;9.502;2024-03-02T10:32:29;17.85;;;11.18;;
78622;SDS011;67943;54.412;9.502;2024-03-02T10:37:30;17.45;;;11.45;;
78622;SDS011;67943;54.412;9.502;2024-03-02T10:42:34;19.63;;;12.05;;
78622;SDS011;67943;54.412;9.502;2024-03-02T10:47:39;19.73;;;12.00;;
78622;SDS011;67943;54.412;9.502;2024-03-02T10:52:43;18.70;;;11.98;;
78622;SDS011;67943;54.412;9.502;2024-03-02T10:57:49;20.67;;;12.48;;
78622;SDS011;67943;54.412;9.502;2024-03-02T11:02:56;20.35;;;12.70;;
78622;SDS011;67943;54.412;9.502;2024-03-02T11:08:00;21.15;;;12.65;;
78622;SDS011;67943;54.412;9.502;2024-03-02T11:13:06;27.60;;;14.48;;
78622;SDS011;67943;54.412;9.502;2024-03-02T11:18:10;21.77;;;12.77;;
78622;SDS011;67943;54.412;9.502;2024-03-02T11:23:13;21.92;;;12.07;;
78622;SDS011;67943;54.412;9.502;2024-03-02T11:28:17;22.02;;;12.88;;
78622;SDS011;67943;54.412;9.502;2024-03-02T11:33:36;22.85;;;12.55;;
78622;SDS011;67943;54.412;9.502;2024-03-02T11:38:38;21.40;;;13.13;;
78622;SDS011;67943;54.412;9.502;2024-03-02T11:43:41;20.27;;;11.63;;
78622;SDS011;67943;54.412;9.502;2024-03-02T11:48:44;18.50;;;11.65;;
78622;SDS011;67943;54.412;9.502;2024-03-02T11:53:47;20.83;;;12.32;;
78622;SDS011;67943;54.412;9.502;2024-03-02T11:58:51;19.25;;;11.68;;
78622;SDS011;67943;54.412;9.502;2024-03-02T12:03:55;19.05;;;11.43;;
78622;SDS011;67943;54.412;9.502;2024-03-02T12:08:56;17.48;;;11.07;;
78622;SDS011;67943;54.412;9.502;2024-03-02T12:14:00;18.27;;;10.85;;
78622;SDS011;67943;54.412;9.502;2024-03-02T12:19:02;14.73;;;9.32;;
78622;SDS011;67943;54.412;9.502;2024-03-02T12:24:04;15.60;;;10.32;;
78622;SDS011;67943;54.412;9.502;2024-03-02T12:29:07;13.10;;;8.48;;
78622;SDS011;67943;54.412;9.502;2024-03-02T12:34:08;11.45;;;7.88;;
78622;SDS011;67943;54.412;9.502;2024-03-02T12:39:10;14.90;;;8.95;;
78622;SDS011;67943;54.412;9.502;2024-03-02T12:44:13;14.07;;;9.38;;
78622;SDS011;67943;54.412;9.502;2024-03-02T12:49:15;15.35;;;9.25;;
78622;SDS011;67943;54.412;9.502;2024-03-02T12:54:17;12.63;;;8.48;;
78622;SDS011;67943;54.412;9.502;2024-03-02T12:59:20;14.07;;;8.10;;
78622;SDS011;67943;54.412;9.502;2024-03-02T13:04:26;14.25;;;9.48;;
78622;SDS011;67943;54.412;9.502;2024-03-02T13:09:29;14.00;;;9.55;;
78622;SDS011;67943;54.412;9.502;2024-03-02T13:14:33;14.43;;;9.73;;
78622;SDS011;67943;54.412;9.502;2024-03-02T13:19:35;16.35;;;9.90;;
78622;SDS011;67943;54.412;9.502;2024-03-02T13:24:36;12.27;;;8.13;;
78622;SDS011;67943;54.412;9.502;2024-03-02T13:29:39;13.02;;;9.43;;
78622;SDS011;67943;54.412;9.502;2024-03-02T13:34:41;11.55;;;8.23;;
78622;SDS011;67943;54.412;9.502;2024-03-02T13:39:43;12.32;;;8.02;;
78622;SDS011;67943;54.412;9.502;2024-03-02T13:44:46;12.60;;;8.82;;
78622;SDS011;67943;54.412;9.502;2024-03-02T13:49:49;11.32;;;8.00;;
78622;SDS011;67943;54.412;9.502;2024-03-02T13:54:51;11.52;;;7.70;;
78622;SDS011;67943;54.412;9.502;2024-03-02T13:59:55;17.13;;;9.23;;
78622;SDS011;67943;54.412;9.502;2024-03-02T14:04:56;13.50;;;8.45;;
78622;SDS011;67943;54.412;9.502;2024-03-02T14:09:58;13.32;;;8.75;;
78622;SDS011;67943;54.412;9.502;2024-03-02T14:15:01;12.90;;;8.30;;
78622;SDS011;67943;54.412;9.502;2024-03-02T14:20:04;14.88;;;8.70;;
78622;SDS011;67943;54.412;9.502;2024-03-02T14:25:08;13.13;;;8.75;;
78622;SDS011;67943;54.412;9.502;2024-03-02T14:30:12;13.60;;;8.70;;
78622;SDS011;67943;54.412;9.502;2024-03-02T14:35:14;13.07;;;8.60;;
78622;SDS011;67943;54.412;9.502;2024-03-02T14:40:15;14.43;;;9.02;;
78622;SDS011;67943;54.412;9.502;2024-03-02T14:45:18;15.55;;;8.38;;
78622;SDS011;67943;54.412;9.502;2024-03-02T14:50:19;15.45;;;8.95;;
78622;SDS011;67943;54.412;9.502;2024-03-02T14:55:21;11.80;;;7.05;;
78622;SDS011;67943;54.412;9.502;2024-03-02T15:00:25;11.88;;;7.95;;
78622;SDS011;67943;54.412;9.502;2024-03-02T15:05:26;11.75;;;7.40;;
78622;SDS011;67943;54.412;9.502;2024-03-02T15:10:28;11.38;;;7.15;;
78622;SDS011;67943;54.412;9.502;2024-03-02T15:15:31;11.48;;;6.80;;
78622;SDS011;67943;54.412;9.502;2024-03-02T15:20:32;12.02;;;7.60;;
78622;SDS011;67943;54.412;9.502;2024-03-02T15:25:34;12.50;;;7.88;;
78622;SDS011;67943;54.412;9.502;2024-03-02T15:30:37;11.25;;;7.55;;
78622;SDS011;67943;54.412;9.502;2024-03-02T15:35:38;14.68;;;8.23;;
78622;SDS011;67943;54.412;9.502;2024-03-02T15:40:40;15.13;;;8.75;;
78622;SDS011;67943;54.412;9.502;2024-03-02T15:45:43;11.15;;;7.97;;
78622;SDS011;67943;54.412;9.502;2024-03-02T15:50:44;14.90;;;9.13;;
78622;SDS011;67943;54.412;9.502;2024-03-02T15:55:46;12.48;;;8.60;;
78622;SDS011;67943;54.412;9.502;2024-03-02T16:00:49;11.30;;;7.88;;
78622;SDS011;67943;54.412;9.502;2024-03-02T16:05:50;13.45;;;8.25;;
78622;SDS011;67943;54.412;9.502;2024-03-02T16:10:52;14.85;;;8.65;;
78622;SDS011;67943;54.412;9.502;2024-03-02T16:15:54;14.63;;;9.13;;
78622;SDS011;67943;54.412;9.502;2024-03-02T16:20:56;17.15;;;10.18;;
78622;SDS011;67943;54.412;9.502;2024-03-02T16:25:57;16.10;;;9.50;;
78622;SDS011;67943;54.412;9.502;2024-03-02T16:31:00;14.18;;;9.70;;
78622;SDS011;67943;54.412;9.502;2024-03-02T16:36:02;18.27;;;11.05;;
78622;SDS011;67943;54.412;9.502;2024-03-02T16:41:04;16.65;;;11.45;;
78622;SDS011;67943;54.412;9.502;2024-03-02T16:46:08;18.95;;;11.30;;
78622;SDS011;67943;54.412;9.502;2024-03-02T16:51:10;19.42;;;11.70;;
78622;SDS011;67943;54.412;9.502;2024-03-02T16:56:11;22.23;;;13.15;;
78622;SDS011;67943;54.412;9.502;2024-03-02T17:01:14;21.60;;;12.82;;
78622;SDS011;67943;54.412;9.502;2024-03-02T17:06:16;21.30;;;12.55;;
78622;SDS011;67943;54.412;9.502;2024-03-02T17:11:17;20.55;;;12.30;;
78622;SDS011;67943;54.412;9.502;2024-03-02T17:16:20;21.23;;;12.90;;
78622;SDS011;67943;54.412;9.502;2024-03-02T17:21:23;24.17;;;14.23;;
78622;SDS011;67943;54.412;9.502;2024-03-02T17:26:25;22.20;;;13.20;;
78622;SDS011;67943;54.412;9.502;2024-03-02T17:31:28;23.50;;;13.60;;
78622;SDS011;67943;54.412;9.502;2024-03-02T17:36:30;23.65;;;14.02;;
78622;SDS011;67943;54.412;9.502;2024-03-02T17:41:31;21.25;;;13.48;;
78622;SDS011;67943;54.412;9.502;2024-03-02T17:46:34;25.20;;;14.30;;
78622;SDS011;67943;54.412;9.502;2024-03-02T17:51:36;24.80;;;14.63;;
78622;SDS011;67943;54.412;9.502;2024-03-02T17:56:37;27.40;;;15.07;;
78622;SDS011;67943;54.412;9.502;2024-03-02T18:01:40;32.35;;;18.67;;
78622;SDS011;67943;54.412;9.502;2024-03-02T18:06:41;28.75;;;16.13;;
78622;SDS011;67943;54.412;9.502;2024-03-02T18:11:43;23.92;;;14.35;;
78622;SDS011;67943;54.412;9.502;2024-03-02T18:16:46;26.83;;;14.38;;
78622;SDS011;67943;54.412;9.502;2024-03-02T18:21:48;22.48;;;13.02;;
78622;SDS011;67943;54.412;9.502;2024-03-02T18:26:49;20.70;;;12.38;;
78622;SDS011;67943;54.412;9.502;2024-03-02T18:31:52;20.92;;;12.45;;
78622;SDS011;67943;54.412;9.502;2024-03-02T18:36:54;20.58;;;11.32;;
78622;SDS011;67943;54.412;9.502;2024-03-02T18:41:55;21.08;;;12.68;;
78622;SDS011;67943;54.412;9.502;2024-03-02T18:46:58;21.10;;;12.50;;
78622;SDS011;67943;54.412;9.502;2024-03-02T18:52:00;20.75;;;11.93;;
78622;SDS011;67943;54.412;9.502;2024-03-02T18:57:01;22.40;;;12.13;;
78622;SDS011;67943;54.412;9.502;2024-03-02T19:02:05;22.17;;;13.23;;
78622;SDS011;67943;54.412;9.502;2024-03-02T19:07:07;19.92;;;11.77;;
78622;SDS011;67943;54.412;9.502;2024-03-02T19:12:10;22.23;;;11.93;;
78622;SDS011;67943;54.412;9.502;2024-03-02T19:17:13;20.42;;;11.68;;
78622;SDS011;67943;54.412;9.502;2024-03-02T19:22:14;20.48;;;11.38;;
78622;SDS011;67943;54.412;9.502;2024-03-02T19:27:16;18.25;;;11.00;;
78622;SDS011;67943;54.412;9.502;2024-03-02T19:32:19;20.02;;;10.45;;
78622;SDS011;67943;54.412;9.502;2024-03-02T19:37:22;16.70;;;9.98;;
78622;SDS011;67943;54.412;9.502;2024-03-02T19:42:23;18.70;;;10.70;;
78622;SDS011;67943;54.412;9.502;2024-03-02T19:47:26;21.60;;;11.15;;
78622;SDS011;67943;54.412;9.502;2024-03-02T19:52:29;19.38;;;10.73;;
78622;SDS011;67943;54.412;9.502;2024-03-02T19:57:30;21.30;;;11.85;;
78622;SDS011;67943;54.412;9.502;2024-03-02T20:02:34;20.10;;;11.45;;
78622;SDS011;67943;54.412;9.502;2024-03-02T20:07:36;23.48;;;13.10;;
78622;SDS011;67943;54.412;9.502;2024-03-02T20:12:40;20.20;;;11.43;;
78622;SDS011;67943;54.412;9.502;2024-03-02T20:17:43;22.90;;;12.50;;
78622;SDS011;67943;54.412;9.502;2024-03-02T20:22:44;21.20;;;11.93;;
78622;SDS011;67943;54.412;9.502;2024-03-02T20:27:46;21.00;;;11.82;;
78622;SDS011;67943;54.412;9.502;2024-03-02T20:32:49;21.83;;;12.00;;
78622;SDS011;67943;54.412;9.502;2024-03-02T20:37:50;30.75;;;16.25;;
78622;SDS011;67943;54.412;9.502;2024-03-02T20:42:51;24.35;;;13.43;;
78622;SDS011;67943;54.412;9.502;2024-03-02T20:47:56;21.30;;;12.75;;
78622;SDS011;67943;54.412;9.502;2024-03-02T20:52:57;22.75;;;13.05;;
78622;SDS011;67943;54.412;9.502;2024-03-02T20:58:04;21.42;;;12.57;;
78622;SDS011;67943;54.412;9.502;2024-03-02T21:03:06;22.70;;;12.98;;
78622;SDS011;67943;54.412;9.502;2024-03-02T21:08:08;22.27;;;12.95;;
78622;SDS011;67943;54.412;9.502;2024-03-02T21:13:10;26.58;;;13.82;;
78622;SDS011;67943;54.412;9.502;2024-03-02T21:18:13;25.08;;;14.18;;
78622;SDS011;67943;54.412;9.502;2024-03-02T21:23:15;28.08;;;14.88;;
78622;SDS011;67943;54.412;9.502;2024-03-02T21:28:16;27.35;;;15.00;;
78622;SDS011;67943;54.412;9.502;2024-03-02T21:33:19;27.42;;;14.80;;
78622;SDS011;67943;54.412;9.502;2024-03-02T21:38:21;27.02;;;15.73;;
78622;SDS011;67943;54.412;9.502;2024-03-02T21:43:23;31.92;;;17.00;;
78622;SDS011;67943;54.412;9.502;2024-03-02T21:48:27;29.42;;;15.45;;
78622;SDS011;67943;54.412;9.502;2024-03-02T21:53:28;28.50;;;16.25;;
78622;SDS011;67943;54.412;9.502;2024-03-02T21:58:30;27.73;;;16.95;;
78622;SDS011;67943;54.412;9.502;2024-03-02T22:03:33;32.53;;;17.02;;
78622;SDS011;67943;54.412;9.502;2024-03-02T22:08:34;31.45;;;17.02;;
78622;SDS011;67943;54.412;9.502;2024-03-02T22:13:36;34.45;;;17.95;;
78622;SDS011;67943;54.412;9.502;2024-03-02T22:18:39;32.28;;;16.85;;
78622;SDS011;67943;54.412;9.502;2024-03-02T22:23:40;31.73;;;17.58;;
78622;SDS011;67943;54.412;9.502;2024-03-02T22:28:42;28.23;;;17.08;;
78622;SDS011;67943;54.412;9.502;2024-03-02T22:33:45;31.05;;;17.67;;
78622;SDS011;67943;54.412;9.502;2024-03-02T22:38:46;31.60;;;18.55;;
78622;SDS011;67943;54.412;9.502;2024-03-02T22:43:48;32.75;;;18.13;;
78622;SDS011;67943;54.412;9.502;2024-03-02T22:48:51;29.20;;;17.23;;
78622;SDS011;67943;54.412;9.502;2024-03-02T22:53:54;32.75;;;18.25;;
78622;SDS011;67943;54.412;9.502;2024-03-02T22:58:55;33.90;;;18.02;;
78622;SDS011;67943;54.412;9.502;2024-03-02T23:03:58;31.63;;;18.08;;
78622;SDS011;67943;54.412;9.502;2024-03-02T23:09:00;32.83;;;18.77;;
78622;SDS011;67943;54.412;9.502;2024-03-02T23:14:03;32.50;;;18.30;;
78622;SDS011;67943;54.412;9.502;2024-03-02T23:19:07;31.38;;;18.15;;
78622;SDS011;67943;54.412;9.502;2024-03-02T23:24:08;32.85;;;19.83;;
78622;SDS011;67943;54.412;9.502;2024-03-02T23:29:10;35.55;;;18.92;;
78622;SDS011;67943;54.412;9.502;2024-03-02T23:34:13;38.03;;;19.60;;
78622;SDS011;67943;54.412;9.502;2024-03-02T23:39:14;35.90;;;19.73;;
78622;SDS011;67943;54.412;9.502;2024-03-02T23:44:37;34.53;;;18.77;;
78622;SDS011;67943;54.412;9.502;2024-03-02T23:49:40;32.95;;;18.77;;
78622;SDS011;67943;54.412;9.502;2024-03-02T23:54:42;35.58;;;19.75;;
78622;SDS011;67943;54.412;9.502;2024-03-02T23:59:43;35.97;;;19.08;;
